sensor_id;sensor_type;location;lat;lon;timestamp;temperature;humidity
59999;DHT22;45859;51.378;6.736;2023-05-14T00:00:15;12.80;99.90
59999;DHT22;45859;51.378;6.736;2023-05-14T00:02:41;12.90;99.90
59999;DHT22;45859;51.378;6.736;2023-05-14T00:05:07;12.90;99.90
59999;DHT22;45859;51.378;6.736;2023-05-14T00:07:33;13.00;99.90
59999;DHT22;45859;51.378;6.736;2023-05-14T00:09:59;13.00;99.90
59999;DHT22;45859;51.378;6.736;2023-05-14T00:12:25;13.40;99.90
59999;DHT22;45859;51.378;6.736;2023-05-14T00:14:52;12.70;99.90
59999;DHT22;45859;51.378;6.736;2023-05-14T00:17:18;12.60;99.90
59999;DHT22;45859;51.378;6.736;2023-05-14T00:19:43;12.50;99.90
59999;DHT22;45859;51.378;6.736;2023-05-14T00:22:09;12.40;99.90
59999;DHT22;45859;51.378;6.736;2023-05-14T00:24:35;12.30;99.90
59999;DHT22;45859;51.378;6.736;2023-05-14T00:27:02;12.20;99.90
59999;DHT22;45859;51.378;6.736;2023-05-14T00:29:27;12.20;99.90
59999;DHT22;45859;51.378;6.736;2023-05-14T00:31:53;12.00;99.90
59999;DHT22;45859;51.378;6.736;2023-05-14T00:34:19;12.00;99.90
59999;DHT22;45859;51.378;6.736;2023-05-14T00:36:44;12.30;99.90
59999;DHT22;45859;51.378;6.736;2023-05-14T00:39:10;11.20;99.90
59999;DHT22;45859;51.378;6.736;2023-05-14T00:41:35;11.80;99.90
59999;DHT22;45859;51.378;6.736;2023-05-14T00:44:01;12.00;99.90
59999;DHT22;45859;51.378;6.736;2023-05-14T00:46:27;12.20;99.90
59999;DHT22;45859;51.378;6.736;2023-05-14T00:48:53;11.40;99.90
59999;DHT22;45859;51.378;6.736;2023-05-14T00:51:19;11.60;99.90
59999;DHT22;45859;51.378;6.736;2023-05-14T00:53:45;11.20;99.90
59999;DHT22;45859;51.378;6.736;2023-05-14T00:56:12;11.10;99.90
59999;DHT22;45859;51.378;6.736;2023-05-14T00:58:38;11.60;99.90
59999;DHT22;45859;51.378;6.736;2023-05-14T01:01:03;11.00;99.90
59999;DHT22;45859;51.378;6.736;2023-05-14T01:03:30;10.90;99.90
59999;DHT22;45859;51.378;6.736;2023-05-14T01:08:58;10.80;99.90
59999;DHT22;45859;51.378;6.736;2023-05-14T01:12:07;10.70;99.90
59999;DHT22;45859;51.378;6.736;2023-05-14T01:15:22;10.60;99.90
59999;DHT22;45859;51.378;6.736;2023-05-14T01:17:28;10.60;99.90
59999;DHT22;45859;51.378;6.736;2023-05-14T01:19:56;10.50;99.90
59999;DHT22;45859;51.378;6.736;2023-05-14T01:22:22;10.60;99.90
59999;DHT22;45859;51.378;6.736;2023-05-14T01:24:48;10.60;99.90
59999;DHT22;45859;51.378;6.736;2023-05-14T01:27:41;10.70;99.90
59999;DHT22;45859;51.378;6.736;2023-05-14T01:30:34;11.20;99.90
59999;DHT22;45859;51.378;6.736;2023-05-14T01:33:05;10.50;99.90
59999;DHT22;45859;51.378;6.736;2023-05-14T01:35:31;10.40;99.90
59999;DHT22;45859;51.378;6.736;2023-05-14T01:38:02;10.30;99.90
59999;DHT22;45859;51.378;6.736;2023-05-14T01:40:29;10.30;99.90
59999;DHT22;45859;51.378;6.736;2023-05-14T01:42:56;10.30;99.90
59999;DHT22;45859;51.378;6.736;2023-05-14T01:45:23;10.20;99.90
59999;DHT22;45859;51.378;6.736;2023-05-14T01:47:49;10.10;99.90
59999;DHT22;45859;51.378;6.736;2023-05-14T01:50:15;10.20;99.90
59999;DHT22;45859;51.378;6.736;2023-05-14T01:52:40;10.20;99.90
59999;DHT22;45859;51.378;6.736;2023-05-14T01:55:06;10.00;99.90
59999;DHT22;45859;51.378;6.736;2023-05-14T01:57:32;10.00;99.90
59999;DHT22;45859;51.378;6.736;2023-05-14T01:59:58;10.00;99.90
59999;DHT22;45859;51.378;6.736;2023-05-14T02:02:23;10.00;99.90
59999;DHT22;45859;51.378;6.736;2023-05-14T02:04:49;10.00;99.90
59999;DHT22;45859;51.378;6.736;2023-05-14T02:07:14;10.00;99.90
59999;DHT22;45859;51.378;6.736;2023-05-14T02:09:40;10.00;99.90
59999;DHT22;45859;51.378;6.736;2023-05-14T02:12:09;10.00;99.90
59999;DHT22;45859;51.378;6.736;2023-05-14T02:14:36;9.90;99.90
59999;DHT22;45859;51.378;6.736;2023-05-14T02:17:01;9.80;99.90
59999;DHT22;45859;51.378;6.736;2023-05-14T02:19:28;10.40;99.90
59999;DHT22;45859;51.378;6.736;2023-05-14T02:21:54;9.80;99.90
59999;DHT22;45859;51.378;6.736;2023-05-14T02:24:19;9.70;99.90
59999;DHT22;45859;51.378;6.736;2023-05-14T02:26:45;9.70;99.90
59999;DHT22;45859;51.378;6.736;2023-05-14T02:29:11;9.70;99.90
59999;DHT22;45859;51.378;6.736;2023-05-14T02:31:36;9.60;99.90
59999;DHT22;45859;51.378;6.736;2023-05-14T02:34:03;9.60;99.90
59999;DHT22;45859;51.378;6.736;2023-05-14T02:36:29;9.60;99.90
59999;DHT22;45859;51.378;6.736;2023-05-14T02:38:56;9.60;99.90
59999;DHT22;45859;51.378;6.736;2023-05-14T02:41:23;9.70;99.90
59999;DHT22;45859;51.378;6.736;2023-05-14T02:43:48;10.50;99.90
59999;DHT22;45859;51.378;6.736;2023-05-14T02:46:14;9.70;99.90
59999;DHT22;45859;51.378;6.736;2023-05-14T02:48:39;9.80;99.90
59999;DHT22;45859;51.378;6.736;2023-05-14T02:51:05;9.60;99.90
59999;DHT22;45859;51.378;6.736;2023-05-14T02:53:31;10.00;99.90
59999;DHT22;45859;51.378;6.736;2023-05-14T02:55:57;10.30;99.90
59999;DHT22;45859;51.378;6.736;2023-05-14T02:58:23;9.70;99.90
59999;DHT22;45859;51.378;6.736;2023-05-14T03:00:48;9.70;99.90
59999;DHT22;45859;51.378;6.736;2023-05-14T03:03:14;9.60;99.90
59999;DHT22;45859;51.378;6.736;2023-05-14T03:05:39;9.60;99.90
59999;DHT22;45859;51.378;6.736;2023-05-14T03:08:05;9.80;99.90
59999;DHT22;45859;51.378;6.736;2023-05-14T03:10:31;10.20;99.90
59999;DHT22;45859;51.378;6.736;2023-05-14T03:12:57;9.70;99.90
59999;DHT22;45859;51.378;6.736;2023-05-14T03:15:22;9.70;99.90
59999;DHT22;45859;51.378;6.736;2023-05-14T03:17:48;9.70;99.90
59999;DHT22;45859;51.378;6.736;2023-05-14T03:20:14;9.80;99.90
59999;DHT22;45859;51.378;6.736;2023-05-14T03:22:39;10.20;99.90
59999;DHT22;45859;51.378;6.736;2023-05-14T03:25:05;9.90;99.90
59999;DHT22;45859;51.378;6.736;2023-05-14T03:27:31;9.90;99.90
59999;DHT22;45859;51.378;6.736;2023-05-14T03:29:58;9.90;99.90
59999;DHT22;45859;51.378;6.736;2023-05-14T03:32:23;9.90;99.90
59999;DHT22;45859;51.378;6.736;2023-05-14T03:34:49;9.90;99.90
59999;DHT22;45859;51.378;6.736;2023-05-14T03:37:15;9.90;99.90
59999;DHT22;45859;51.378;6.736;2023-05-14T03:39:40;9.90;99.90
59999;DHT22;45859;51.378;6.736;2023-05-14T03:42:06;10.10;99.90
59999;DHT22;45859;51.378;6.736;2023-05-14T03:44:32;10.30;99.90
59999;DHT22;45859;51.378;6.736;2023-05-14T03:46:57;10.00;99.90
59999;DHT22;45859;51.378;6.736;2023-05-14T03:49:24;10.10;99.90
59999;DHT22;45859;51.378;6.736;2023-05-14T03:51:50;10.10;99.90
59999;DHT22;45859;51.378;6.736;2023-05-14T03:54:15;11.20;99.90
59999;DHT22;45859;51.378;6.736;2023-05-14T03:56:41;11.00;99.90
59999;DHT22;45859;51.378;6.736;2023-05-14T03:59:06;10.20;99.90
59999;DHT22;45859;51.378;6.736;2023-05-14T04:01:32;10.20;99.90
59999;DHT22;45859;51.378;6.736;2023-05-14T04:03:58;10.20;99.90
59999;DHT22;45859;51.378;6.736;2023-05-14T04:06:23;10.20;99.90
59999;DHT22;45859;51.378;6.736;2023-05-14T04:08:49;10.60;99.90
59999;DHT22;45859;51.378;6.736;2023-05-14T04:11:15;10.10;99.90
59999;DHT22;45859;51.378;6.736;2023-05-14T04:13:40;10.20;99.90
59999;DHT22;45859;51.378;6.736;2023-05-14T04:16:06;10.10;99.90
59999;DHT22;45859;51.378;6.736;2023-05-14T04:18:31;10.00;99.90
59999;DHT22;45859;51.378;6.736;2023-05-14T04:20:59;10.00;99.90
59999;DHT22;45859;51.378;6.736;2023-05-14T04:23:25;10.30;99.90
59999;DHT22;45859;51.378;6.736;2023-05-14T04:25:51;10.00;99.90
59999;DHT22;45859;51.378;6.736;2023-05-14T04:28:16;10.90;99.90
59999;DHT22;45859;51.378;6.736;2023-05-14T04:30:42;10.10;99.90
59999;DHT22;45859;51.378;6.736;2023-05-14T04:33:07;10.20;99.90
59999;DHT22;45859;51.378;6.736;2023-05-14T04:35:33;10.20;99.90
59999;DHT22;45859;51.378;6.736;2023-05-14T04:37:59;10.40;99.90
59999;DHT22;45859;51.378;6.736;2023-05-14T04:40:25;10.30;99.90
59999;DHT22;45859;51.378;6.736;2023-05-14T04:42:50;10.30;99.90
59999;DHT22;45859;51.378;6.736;2023-05-14T04:45:16;10.40;99.90
59999;DHT22;45859;51.378;6.736;2023-05-14T04:47:41;10.50;99.90
59999;DHT22;45859;51.378;6.736;2023-05-14T04:50:08;10.50;99.90
59999;DHT22;45859;51.378;6.736;2023-05-14T04:52:34;10.50;99.90
59999;DHT22;45859;51.378;6.736;2023-05-14T04:55:00;10.60;99.90
59999;DHT22;45859;51.378;6.736;2023-05-14T04:57:25;10.70;99.90
59999;DHT22;45859;51.378;6.736;2023-05-14T04:59:51;11.10;99.90
59999;DHT22;45859;51.378;6.736;2023-05-14T05:02:17;10.90;99.90
59999;DHT22;45859;51.378;6.736;2023-05-14T05:04:42;11.00;99.90
59999;DHT22;45859;51.378;6.736;2023-05-14T05:07:08;11.00;99.90
59999;DHT22;45859;51.378;6.736;2023-05-14T05:09:33;11.00;99.90
59999;DHT22;45859;51.378;6.736;2023-05-14T05:11:59;11.20;99.90
59999;DHT22;45859;51.378;6.736;2023-05-14T05:14:26;11.00;99.90
59999;DHT22;45859;51.378;6.736;2023-05-14T05:16:51;11.10;99.90
59999;DHT22;45859;51.378;6.736;2023-05-14T05:19:17;11.80;99.90
59999;DHT22;45859;51.378;6.736;2023-05-14T05:21:43;11.20;99.90
59999;DHT22;45859;51.378;6.736;2023-05-14T05:24:08;11.30;99.90
59999;DHT22;45859;51.378;6.736;2023-05-14T05:26:34;11.30;99.90
59999;DHT22;45859;51.378;6.736;2023-05-14T05:29:03;11.60;99.90
59999;DHT22;45859;51.378;6.736;2023-05-14T05:31:29;11.60;99.90
59999;DHT22;45859;51.378;6.736;2023-05-14T05:33:55;11.70;99.90
59999;DHT22;45859;51.378;6.736;2023-05-14T05:36:21;11.80;99.90
59999;DHT22;45859;51.378;6.736;2023-05-14T05:38:46;11.90;99.90
59999;DHT22;45859;51.378;6.736;2023-05-14T05:41:12;12.00;99.90
59999;DHT22;45859;51.378;6.736;2023-05-14T05:43:37;12.10;99.90
59999;DHT22;45859;51.378;6.736;2023-05-14T05:46:03;12.70;99.90
59999;DHT22;45859;51.378;6.736;2023-05-14T05:48:29;12.50;99.90
59999;DHT22;45859;51.378;6.736;2023-05-14T05:50:54;12.70;99.90
59999;DHT22;45859;51.378;6.736;2023-05-14T05:53:20;12.90;99.90
59999;DHT22;45859;51.378;6.736;2023-05-14T05:55:46;13.20;99.90
59999;DHT22;45859;51.378;6.736;2023-05-14T05:58:12;13.20;99.90
59999;DHT22;45859;51.378;6.736;2023-05-14T06:00:40;13.10;99.90
59999;DHT22;45859;51.378;6.736;2023-05-14T06:03:05;13.30;99.90
59999;DHT22;45859;51.378;6.736;2023-05-14T06:05:31;13.70;99.90
59999;DHT22;45859;51.378;6.736;2023-05-14T06:07:57;13.90;99.90
59999;DHT22;45859;51.378;6.736;2023-05-14T06:10:22;14.20;99.90
59999;DHT22;45859;51.378;6.736;2023-05-14T06:12:48;14.50;99.90
59999;DHT22;45859;51.378;6.736;2023-05-14T06:15:14;14.80;99.90
59999;DHT22;45859;51.378;6.736;2023-05-14T06:17:39;15.20;99.90
59999;DHT22;45859;51.378;6.736;2023-05-14T06:20:06;15.40;99.90
59999;DHT22;45859;51.378;6.736;2023-05-14T06:22:35;15.60;99.90
59999;DHT22;45859;51.378;6.736;2023-05-14T06:25:01;16.30;99.90
59999;DHT22;45859;51.378;6.736;2023-05-14T06:27:26;16.90;99.90
59999;DHT22;45859;51.378;6.736;2023-05-14T06:29:52;17.60;99.90
59999;DHT22;45859;51.378;6.736;2023-05-14T06:32:17;18.80;99.90
59999;DHT22;45859;51.378;6.736;2023-05-14T06:34:43;20.20;99.90
59999;DHT22;45859;51.378;6.736;2023-05-14T06:37:09;21.30;99.90
59999;DHT22;45859;51.378;6.736;2023-05-14T06:39:36;21.90;99.90
59999;DHT22;45859;51.378;6.736;2023-05-14T06:42:02;22.50;99.90
59999;DHT22;45859;51.378;6.736;2023-05-14T06:44:28;23.40;99.90
59999;DHT22;45859;51.378;6.736;2023-05-14T06:46:53;23.40;99.90
59999;DHT22;45859;51.378;6.736;2023-05-14T06:49:19;24.10;99.90
59999;DHT22;45859;51.378;6.736;2023-05-14T06:51:45;24.50;99.90
59999;DHT22;45859;51.378;6.736;2023-05-14T06:54:11;24.90;99.90
59999;DHT22;45859;51.378;6.736;2023-05-14T06:56:37;25.20;99.90
59999;DHT22;45859;51.378;6.736;2023-05-14T06:59:02;25.80;99.90
59999;DHT22;45859;51.378;6.736;2023-05-14T07:01:28;26.40;99.90
59999;DHT22;45859;51.378;6.736;2023-05-14T07:03:54;26.20;99.90
59999;DHT22;45859;51.378;6.736;2023-05-14T07:06:20;26.40;99.90
59999;DHT22;45859;51.378;6.736;2023-05-14T07:08:46;25.80;99.90
59999;DHT22;45859;51.378;6.736;2023-05-14T07:11:12;25.40;99.90
59999;DHT22;45859;51.378;6.736;2023-05-14T07:13:37;25.60;99.90
59999;DHT22;45859;51.378;6.736;2023-05-14T07:16:03;25.80;99.90
59999;DHT22;45859;51.378;6.736;2023-05-14T07:18:29;26.10;99.90
59999;DHT22;45859;51.378;6.736;2023-05-14T07:20:55;26.40;99.90
59999;DHT22;45859;51.378;6.736;2023-05-14T07:23:21;26.90;99.90
59999;DHT22;45859;51.378;6.736;2023-05-14T07:25:46;27.30;99.90
59999;DHT22;45859;51.378;6.736;2023-05-14T07:28:12;27.70;99.90
59999;DHT22;45859;51.378;6.736;2023-05-14T07:30:38;28.20;99.90
59999;DHT22;45859;51.378;6.736;2023-05-14T07:33:03;28.40;99.90
59999;DHT22;45859;51.378;6.736;2023-05-14T07:35:29;28.70;99.90
59999;DHT22;45859;51.378;6.736;2023-05-14T07:37:55;28.80;99.90
59999;DHT22;45859;51.378;6.736;2023-05-14T07:40:20;28.70;99.90
59999;DHT22;45859;51.378;6.736;2023-05-14T07:42:46;28.70;99.90
59999;DHT22;45859;51.378;6.736;2023-05-14T07:45:12;28.80;99.90
59999;DHT22;45859;51.378;6.736;2023-05-14T07:47:38;28.70;99.90
59999;DHT22;45859;51.378;6.736;2023-05-14T07:50:05;29.00;99.90
59999;DHT22;45859;51.378;6.736;2023-05-14T07:52:31;28.70;99.90
59999;DHT22;45859;51.378;6.736;2023-05-14T07:54:56;29.30;99.90
59999;DHT22;45859;51.378;6.736;2023-05-14T07:57:22;29.50;99.90
59999;DHT22;45859;51.378;6.736;2023-05-14T07:59:47;29.60;99.90
59999;DHT22;45859;51.378;6.736;2023-05-14T08:02:13;29.30;99.90
59999;DHT22;45859;51.378;6.736;2023-05-14T08:04:40;29.40;99.90
59999;DHT22;45859;51.378;6.736;2023-05-14T08:07:06;29.30;99.90
59999;DHT22;45859;51.378;6.736;2023-05-14T08:09:33;29.70;99.90
59999;DHT22;45859;51.378;6.736;2023-05-14T08:11:58;30.00;99.90
59999;DHT22;45859;51.378;6.736;2023-05-14T08:14:24;30.00;99.90
59999;DHT22;45859;51.378;6.736;2023-05-14T08:16:50;29.20;99.90
59999;DHT22;45859;51.378;6.736;2023-05-14T08:19:15;29.10;99.90
59999;DHT22;45859;51.378;6.736;2023-05-14T08:21:41;29.50;99.90
59999;DHT22;45859;51.378;6.736;2023-05-14T08:24:06;29.30;99.90
59999;DHT22;45859;51.378;6.736;2023-05-14T08:26:32;29.50;99.90
59999;DHT22;45859;51.378;6.736;2023-05-14T08:28:58;29.60;99.90
59999;DHT22;45859;51.378;6.736;2023-05-14T08:31:23;29.70;99.90
59999;DHT22;45859;51.378;6.736;2023-05-14T08:33:49;30.10;99.90
59999;DHT22;45859;51.378;6.736;2023-05-14T08:36:15;30.60;99.90
59999;DHT22;45859;51.378;6.736;2023-05-14T08:38:40;30.60;99.90
59999;DHT22;45859;51.378;6.736;2023-05-14T08:41:07;30.90;99.90
59999;DHT22;45859;51.378;6.736;2023-05-14T08:46:07;30.80;99.90
59999;DHT22;45859;51.378;6.736;2023-05-14T08:48:35;30.60;99.90
59999;DHT22;45859;51.378;6.736;2023-05-14T08:51:02;31.00;99.90
59999;DHT22;45859;51.378;6.736;2023-05-14T08:53:28;31.10;99.90
59999;DHT22;45859;51.378;6.736;2023-05-14T08:55:55;31.50;99.90
59999;DHT22;45859;51.378;6.736;2023-05-14T08:58:20;31.70;99.90
59999;DHT22;45859;51.378;6.736;2023-05-14T09:00:46;32.00;99.90
59999;DHT22;45859;51.378;6.736;2023-05-14T09:03:12;31.80;99.90
59999;DHT22;45859;51.378;6.736;2023-05-14T09:05:39;32.40;99.90
59999;DHT22;45859;51.378;6.736;2023-05-14T09:08:05;32.50;99.90
59999;DHT22;45859;51.378;6.736;2023-05-14T09:10:31;32.70;99.90
59999;DHT22;45859;51.378;6.736;2023-05-14T09:12:57;32.80;99.90
59999;DHT22;45859;51.378;6.736;2023-05-14T09:15:26;32.70;99.90
59999;DHT22;45859;51.378;6.736;2023-05-14T09:17:53;32.30;99.90
59999;DHT22;45859;51.378;6.736;2023-05-14T09:20:19;32.10;99.90
59999;DHT22;45859;51.378;6.736;2023-05-14T09:22:44;33.40;99.90
59999;DHT22;45859;51.378;6.736;2023-05-14T09:25:10;33.10;99.90
59999;DHT22;45859;51.378;6.736;2023-05-14T09:27:37;32.60;99.90
59999;DHT22;45859;51.378;6.736;2023-05-14T09:30:08;33.20;99.90
59999;DHT22;45859;51.378;6.736;2023-05-14T09:32:41;33.00;99.90
59999;DHT22;45859;51.378;6.736;2023-05-14T09:35:19;32.60;99.90
59999;DHT22;45859;51.378;6.736;2023-05-14T09:37:47;32.40;99.90
59999;DHT22;45859;51.378;6.736;2023-05-14T09:40:21;32.70;99.90
59999;DHT22;45859;51.378;6.736;2023-05-14T09:42:47;32.80;99.90
59999;DHT22;45859;51.378;6.736;2023-05-14T09:45:14;32.20;99.90
59999;DHT22;45859;51.378;6.736;2023-05-14T09:47:40;31.00;99.90
59999;DHT22;45859;51.378;6.736;2023-05-14T09:50:07;29.30;99.90
59999;DHT22;45859;51.378;6.736;2023-05-14T09:52:32;27.60;99.90
59999;DHT22;45859;51.378;6.736;2023-05-14T09:54:59;26.30;99.90
59999;DHT22;45859;51.378;6.736;2023-05-14T09:57:25;26.00;99.90
59999;DHT22;45859;51.378;6.736;2023-05-14T09:59:52;25.50;99.90
59999;DHT22;45859;51.378;6.736;2023-05-14T10:02:25;25.20;99.90
59999;DHT22;45859;51.378;6.736;2023-05-14T10:04:53;24.70;99.90
59999;DHT22;45859;51.378;6.736;2023-05-14T10:07:26;24.60;99.90
59999;DHT22;45859;51.378;6.736;2023-05-14T10:10:00;24.80;99.90
59999;DHT22;45859;51.378;6.736;2023-05-14T10:12:33;25.00;99.90
59999;DHT22;45859;51.378;6.736;2023-05-14T10:15:05;25.20;99.90
59999;DHT22;45859;51.378;6.736;2023-05-14T10:17:33;24.50;99.90
59999;DHT22;45859;51.378;6.736;2023-05-14T10:20:01;23.70;99.90
59999;DHT22;45859;51.378;6.736;2023-05-14T10:22:33;24.00;99.90
59999;DHT22;45859;51.378;6.736;2023-05-14T10:25:02;24.20;99.90
59999;DHT22;45859;51.378;6.736;2023-05-14T10:27:29;24.00;99.90
59999;DHT22;45859;51.378;6.736;2023-05-14T10:29:55;23.60;99.90
59999;DHT22;45859;51.378;6.736;2023-05-14T10:32:22;23.30;99.90
59999;DHT22;45859;51.378;6.736;2023-05-14T10:34:51;23.60;99.90
59999;DHT22;45859;51.378;6.736;2023-05-14T10:37:22;24.00;99.90
59999;DHT22;45859;51.378;6.736;2023-05-14T10:42:18;23.50;99.90
59999;DHT22;45859;51.378;6.736;2023-05-14T10:47:17;23.50;99.90
59999;DHT22;45859;51.378;6.736;2023-05-14T10:52:11;23.50;99.90
59999;DHT22;45859;51.378;6.736;2023-05-14T10:54:37;23.00;99.90
59999;DHT22;45859;51.378;6.736;2023-05-14T10:57:03;22.70;99.90
59999;DHT22;45859;51.378;6.736;2023-05-14T10:59:29;22.50;99.90
59999;DHT22;45859;51.378;6.736;2023-05-14T11:01:56;22.60;99.90
59999;DHT22;45859;51.378;6.736;2023-05-14T11:04:26;23.10;99.90
59999;DHT22;45859;51.378;6.736;2023-05-14T11:06:53;23.50;99.90
59999;DHT22;45859;51.378;6.736;2023-05-14T11:09:20;23.80;99.90
59999;DHT22;45859;51.378;6.736;2023-05-14T11:11:47;24.20;99.90
59999;DHT22;45859;51.378;6.736;2023-05-14T11:14:13;24.40;99.90
59999;DHT22;45859;51.378;6.736;2023-05-14T11:16:39;24.40;99.90
59999;DHT22;45859;51.378;6.736;2023-05-14T11:19:06;24.50;99.90
59999;DHT22;45859;51.378;6.736;2023-05-14T11:21:31;24.40;99.90
59999;DHT22;45859;51.378;6.736;2023-05-14T11:24:00;24.40;99.90
59999;DHT22;45859;51.378;6.736;2023-05-14T11:26:26;24.20;99.90
59999;DHT22;45859;51.378;6.736;2023-05-14T11:28:52;23.50;99.90
59999;DHT22;45859;51.378;6.736;2023-05-14T11:31:18;23.70;99.90
59999;DHT22;45859;51.378;6.736;2023-05-14T11:33:43;23.70;99.90
59999;DHT22;45859;51.378;6.736;2023-05-14T11:36:10;23.70;99.90
59999;DHT22;45859;51.378;6.736;2023-05-14T11:38:48;23.70;99.90
59999;DHT22;45859;51.378;6.736;2023-05-14T11:41:15;23.60;99.90
59999;DHT22;45859;51.378;6.736;2023-05-14T11:43:41;23.40;99.90
59999;DHT22;45859;51.378;6.736;2023-05-14T11:46:07;23.20;99.90
59999;DHT22;45859;51.378;6.736;2023-05-14T11:48:40;23.20;99.90
59999;DHT22;45859;51.378;6.736;2023-05-14T11:51:06;22.90;99.90
59999;DHT22;45859;51.378;6.736;2023-05-14T11:53:32;22.80;99.90
59999;DHT22;45859;51.378;6.736;2023-05-14T11:55:57;22.60;99.90
59999;DHT22;45859;51.378;6.736;2023-05-14T11:58:24;22.90;99.90
59999;DHT22;45859;51.378;6.736;2023-05-14T12:00:51;23.00;99.90
59999;DHT22;45859;51.378;6.736;2023-05-14T12:03:20;22.70;99.90
59999;DHT22;45859;51.378;6.736;2023-05-14T12:06:00;23.00;99.90
59999;DHT22;45859;51.378;6.736;2023-05-14T12:08:30;23.10;99.90
59999;DHT22;45859;51.378;6.736;2023-05-14T12:10:59;23.00;99.90
59999;DHT22;45859;51.378;6.736;2023-05-14T12:13:29;22.90;99.90
59999;DHT22;45859;51.378;6.736;2023-05-14T12:15:56;23.00;99.90
59999;DHT22;45859;51.378;6.736;2023-05-14T12:18:28;23.20;99.90
59999;DHT22;45859;51.378;6.736;2023-05-14T12:20:54;23.30;99.90
59999;DHT22;45859;51.378;6.736;2023-05-14T12:23:27;23.20;99.90
59999;DHT22;45859;51.378;6.736;2023-05-14T12:25:53;23.00;99.90
59999;DHT22;45859;51.378;6.736;2023-05-14T12:28:19;23.00;99.90
59999;DHT22;45859;51.378;6.736;2023-05-14T12:30:47;23.00;99.90
59999;DHT22;45859;51.378;6.736;2023-05-14T12:33:20;23.00;99.90
59999;DHT22;45859;51.378;6.736;2023-05-14T12:35:48;23.10;99.90
59999;DHT22;45859;51.378;6.736;2023-05-14T12:38:14;23.30;99.90
59999;DHT22;45859;51.378;6.736;2023-05-14T12:40:40;23.40;99.90
59999;DHT22;45859;51.378;6.736;2023-05-14T12:43:06;23.40;99.90
59999;DHT22;45859;51.378;6.736;2023-05-14T12:45:32;23.40;99.90
59999;DHT22;45859;51.378;6.736;2023-05-14T12:47:57;23.40;99.90
59999;DHT22;45859;51.378;6.736;2023-05-14T12:50:23;23.40;99.90
59999;DHT22;45859;51.378;6.736;2023-05-14T12:52:49;23.20;99.90
59999;DHT22;45859;51.378;6.736;2023-05-14T12:55:15;23.00;99.90
59999;DHT22;45859;51.378;6.736;2023-05-14T12:57:40;23.00;99.90
59999;DHT22;45859;51.378;6.736;2023-05-14T13:00:07;23.10;99.90
59999;DHT22;45859;51.378;6.736;2023-05-14T13:02:35;23.20;99.90
59999;DHT22;45859;51.378;6.736;2023-05-14T13:05:01;23.20;99.90
59999;DHT22;45859;51.378;6.736;2023-05-14T13:07:30;23.10;99.90
59999;DHT22;45859;51.378;6.736;2023-05-14T13:09:56;23.10;99.90
59999;DHT22;45859;51.378;6.736;2023-05-14T13:12:24;23.10;99.90
59999;DHT22;45859;51.378;6.736;2023-05-14T13:14:51;23.00;99.90
59999;DHT22;45859;51.378;6.736;2023-05-14T13:17:16;23.00;99.90
59999;DHT22;45859;51.378;6.736;2023-05-14T13:19:42;22.60;99.90
59999;DHT22;45859;51.378;6.736;2023-05-14T13:22:08;22.70;99.90
59999;DHT22;45859;51.378;6.736;2023-05-14T13:24:34;22.70;99.90
59999;DHT22;45859;51.378;6.736;2023-05-14T13:27:00;22.20;99.90
59999;DHT22;45859;51.378;6.736;2023-05-14T13:29:26;22.10;99.90
59999;DHT22;45859;51.378;6.736;2023-05-14T13:31:54;22.20;99.90
59999;DHT22;45859;51.378;6.736;2023-05-14T13:34:19;22.30;99.90
59999;DHT22;45859;51.378;6.736;2023-05-14T13:36:45;22.60;99.90
59999;DHT22;45859;51.378;6.736;2023-05-14T13:39:11;22.60;99.90
59999;DHT22;45859;51.378;6.736;2023-05-14T13:41:37;22.70;99.90
59999;DHT22;45859;51.378;6.736;2023-05-14T13:44:03;22.60;99.90
59999;DHT22;45859;51.378;6.736;2023-05-14T13:46:29;22.80;99.90
59999;DHT22;45859;51.378;6.736;2023-05-14T13:48:55;23.10;99.90
59999;DHT22;45859;51.378;6.736;2023-05-14T13:51:21;23.10;99.90
59999;DHT22;45859;51.378;6.736;2023-05-14T13:53:47;23.30;99.90
59999;DHT22;45859;51.378;6.736;2023-05-14T13:56:13;23.20;99.90
59999;DHT22;45859;51.378;6.736;2023-05-14T13:58:39;23.40;99.90
59999;DHT22;45859;51.378;6.736;2023-05-14T14:01:04;23.50;99.90
59999;DHT22;45859;51.378;6.736;2023-05-14T14:03:30;23.50;99.90
59999;DHT22;45859;51.378;6.736;2023-05-14T14:05:56;23.40;99.90
59999;DHT22;45859;51.378;6.736;2023-05-14T14:08:22;23.30;99.90
59999;DHT22;45859;51.378;6.736;2023-05-14T14:10:47;23.20;99.90
59999;DHT22;45859;51.378;6.736;2023-05-14T14:13:13;23.20;99.90
59999;DHT22;45859;51.378;6.736;2023-05-14T14:15:39;23.10;99.90
59999;DHT22;45859;51.378;6.736;2023-05-14T14:18:04;23.00;99.90
59999;DHT22;45859;51.378;6.736;2023-05-14T14:20:31;23.00;99.90
59999;DHT22;45859;51.378;6.736;2023-05-14T14:22:57;23.10;99.90
59999;DHT22;45859;51.378;6.736;2023-05-14T14:25:23;23.20;99.90
59999;DHT22;45859;51.378;6.736;2023-05-14T14:27:48;23.30;99.90
59999;DHT22;45859;51.378;6.736;2023-05-14T14:30:15;23.30;99.90
59999;DHT22;45859;51.378;6.736;2023-05-14T14:32:45;23.40;99.90
59999;DHT22;45859;51.378;6.736;2023-05-14T14:35:12;23.30;99.90
59999;DHT22;45859;51.378;6.736;2023-05-14T14:37:38;23.20;99.90
59999;DHT22;45859;51.378;6.736;2023-05-14T14:40:04;23.10;99.90
59999;DHT22;45859;51.378;6.736;2023-05-14T14:42:35;23.10;99.90
59999;DHT22;45859;51.378;6.736;2023-05-14T14:45:01;23.10;99.90
59999;DHT22;45859;51.378;6.736;2023-05-14T14:47:27;23.10;99.90
59999;DHT22;45859;51.378;6.736;2023-05-14T14:49:54;23.10;99.90
59999;DHT22;45859;51.378;6.736;2023-05-14T14:52:21;23.10;99.90
59999;DHT22;45859;51.378;6.736;2023-05-14T14:54:47;22.90;99.90
59999;DHT22;45859;51.378;6.736;2023-05-14T14:57:12;23.00;99.90
59999;DHT22;45859;51.378;6.736;2023-05-14T14:59:38;22.90;99.90
59999;DHT22;45859;51.378;6.736;2023-05-14T15:02:03;23.00;99.90
59999;DHT22;45859;51.378;6.736;2023-05-14T15:04:29;22.90;99.90
59999;DHT22;45859;51.378;6.736;2023-05-14T15:06:58;22.90;99.90
59999;DHT22;45859;51.378;6.736;2023-05-14T15:09:24;22.80;99.90
59999;DHT22;45859;51.378;6.736;2023-05-14T15:11:49;22.80;99.90
59999;DHT22;45859;51.378;6.736;2023-05-14T15:14:15;22.80;99.90
59999;DHT22;45859;51.378;6.736;2023-05-14T15:16:41;22.70;99.90
59999;DHT22;45859;51.378;6.736;2023-05-14T15:19:06;22.50;99.90
59999;DHT22;45859;51.378;6.736;2023-05-14T15:21:32;22.40;99.90
59999;DHT22;45859;51.378;6.736;2023-05-14T15:23:58;22.40;99.90
59999;DHT22;45859;51.378;6.736;2023-05-14T15:26:24;22.50;99.90
59999;DHT22;45859;51.378;6.736;2023-05-14T15:28:50;22.30;99.90
59999;DHT22;45859;51.378;6.736;2023-05-14T15:31:16;22.30;99.90
59999;DHT22;45859;51.378;6.736;2023-05-14T15:33:42;22.30;99.90
59999;DHT22;45859;51.378;6.736;2023-05-14T15:36:07;22.40;99.90
59999;DHT22;45859;51.378;6.736;2023-05-14T15:38:33;22.40;99.90
59999;DHT22;45859;51.378;6.736;2023-05-14T15:40:59;22.40;99.90